Time;durP1;ratioP1;P1;durP2;ratioP2;P2;SDS_P1;SDS_P2;PMS_P1;PMS_P2;Temp;Humidity;BMP_temperature;BMP_pressure;BME280_temperature;BME280_humidity;BME280_pressure;Samples;Min_cycle;Max_cycle;Signal;HPM_P1;HPM_P2
2021/10/22 00:02:22;;;;;;;2.60;2.47;;;8.20;99.90;;;8.97;100.00;97877.34;5196959;28;20265;-83
2021/10/22 00:04:55;;;;;;;2.87;2.50;;;8.10;99.90;;;8.95;100.00;97876.38;5194138;28;20227;-82
2021/10/22 00:07:29;;;;;;;2.80;2.60;;;8.00;99.90;;;9.02;100.00;97877.66;5196770;28;20261;-84
2021/10/22 00:10:02;;;;;;;2.70;2.57;;;8.20;99.90;;;9.10;100.00;97885.75;5199259;28;20257;-83
2021/10/22 00:12:35;;;;;;;3.20;2.70;;;8.20;99.90;;;9.13;100.00;97888.50;5198615;28;20289;-83
2021/10/22 00:15:11;;;;;;;3.70;2.93;;;8.30;99.90;;;9.18;100.00;97897.34;5198547;28;20218;-83
2021/10/22 00:17:44;;;;;;;2.77;2.50;;;8.30;99.90;;;9.15;100.00;97892.91;5198645;28;20202;-83
2021/10/22 00:20:17;;;;;;;4.10;2.57;;;8.30;99.90;;;9.14;100.00;97900.50;5198900;28;20325;-83
2021/10/22 00:22:50;;;;;;;3.33;2.90;;;8.30;99.90;;;9.17;100.00;97905.78;5199205;28;20210;-83
2021/10/22 00:25:24;;;;;;;2.60;2.47;;;8.30;99.90;;;9.23;100.00;97901.06;5198141;28;20305;-84
2021/10/22 00:27:57;;;;;;;3.67;2.83;;;8.40;99.90;;;9.20;100.00;97898.31;5197581;28;20749;-84
2021/10/22 00:30:31;;;;;;;4.60;3.23;;;8.40;99.90;;;9.18;100.00;97897.34;5197113;28;20260;-83
2021/10/22 00:33:05;;;;;;;4.10;3.10;;;8.30;99.90;;;9.22;100.00;97896.75;5197812;28;20795;-83
2021/10/22 00:35:38;;;;;;;3.07;2.83;;;8.30;99.90;;;9.05;100.00;97887.16;5198504;28;20238;-83
2021/10/22 00:38:11;;;;;;;3.13;2.90;;;8.20;99.90;;;9.01;100.00;97889.53;5197897;28;21001;-83
2021/10/22 00:40:46;;;;;;;3.20;3.00;;;8.20;99.90;;;9.06;100.00;97894.03;5197739;28;20223;-83
2021/10/22 00:43:20;;;;;;;3.07;2.77;;;8.00;99.90;;;9.07;100.00;97889.03;5197463;28;20265;-83
2021/10/22 00:45:54;;;;;;;4.23;2.90;;;8.10;99.90;;;9.09;100.00;97896.75;5197132;28;20776;-83
2021/10/22 00:48:28;;;;;;;3.00;2.90;;;8.10;99.90;;;9.12;100.00;97907.16;5196524;28;20265;-83
2021/10/22 00:51:02;;;;;;;3.63;3.40;;;8.20;99.90;;;9.09;100.00;97912.94;5195619;28;20203;-83
2021/10/22 00:53:37;;;;;;;4.10;3.70;;;8.20;99.90;;;9.10;100.00;97924.00;5198014;28;20182;-84
2021/10/22 00:56:11;;;;;;;4.23;3.83;;;8.20;99.90;;;9.09;100.00;97927.34;5197782;28;20322;-83
2021/10/22 00:58:44;;;;;;;5.43;4.93;;;8.20;99.90;;;9.06;100.00;97932.25;5198107;28;20226;-83
2021/10/22 01:01:19;;;;;;;5.27;4.83;;;8.20;99.90;;;9.13;100.00;97930.22;5198676;28;20257;-82
2021/10/22 01:03:52;;;;;;;6.23;5.63;;;8.20;99.90;;;9.15;100.00;97932.84;5197391;28;20651;-82
2021/10/22 01:06:25;;;;;;;5.77;5.27;;;8.20;99.90;;;9.07;100.00;97939.13;5196984;28;20226;-83
2021/10/22 01:08:59;;;;;;;5.73;5.10;;;8.00;99.90;;;9.05;100.00;97926.28;5196963;28;20224;-83
2021/10/22 01:11:34;;;;;;;6.40;5.07;;;8.10;99.90;;;8.94;100.00;97928.16;5197488;28;20194;-83
2021/10/22 01:14:09;;;;;;;5.47;5.03;;;8.10;99.90;;;9.06;100.00;97927.16;5197396;28;20235;-83
2021/10/22 01:16:43;;;;;;;5.53;4.83;;;8.00;99.90;;;9.02;100.00;97911.69;5195605;28;20749;-83
2021/10/22 01:19:18;;;;;;;5.23;4.83;;;8.00;99.90;;;9.06;100.00;97916.97;5196243;28;20274;-83
2021/10/22 01:21:53;;;;;;;5.63;5.13;;;8.10;99.90;;;9.08;100.00;97920.50;5197418;28;20241;-83
2021/10/22 01:24:26;;;;;;;5.20;4.70;;;8.00;99.90;;;9.06;100.00;97914.41;5197032;28;20241;-83
2021/10/22 01:26:59;;;;;;;5.97;5.27;;;8.10;99.90;;;9.05;100.00;97918.63;5195780;28;20205;-82
2021/10/22 01:29:32;;;;;;;5.70;5.13;;;8.10;99.90;;;9.05;100.00;97915.22;5195195;28;20234;-83
2021/10/22 01:32:07;;;;;;;6.37;5.77;;;8.20;99.90;;;9.05;100.00;97912.66;5196430;28;20266;-83
2021/10/22 01:34:40;;;;;;;6.57;5.97;;;8.10;99.90;;;9.11;100.00;97915.59;5196797;28;20228;-83
2021/10/22 01:37:14;;;;;;;6.03;5.50;;;8.20;99.90;;;9.10;100.00;97908.72;5196186;28;20222;-83
2021/10/22 01:39:47;;;;;;;6.27;5.70;;;8.10;99.90;;;9.11;100.00;97921.56;5192197;28;20190;-83
2021/10/22 01:42:21;;;;;;;6.13;5.53;;;8.10;99.90;;;9.04;100.00;97919.41;5198098;28;20223;-83
2021/10/22 01:44:55;;;;;;;5.97;5.03;;;8.10;99.90;;;9.05;100.00;97923.75;5201087;28;20246;-83
2021/10/22 01:47:28;;;;;;;6.53;5.77;;;8.10;99.90;;;9.05;100.00;97925.41;5199793;28;20733;-83
2021/10/22 01:50:01;;;;;;;5.93;5.43;;;8.20;99.90;;;9.01;100.00;97919.22;5204272;28;20230;-83
2021/10/22 01:52:36;;;;;;;6.57;5.97;;;8.20;99.90;;;9.03;100.00;97915.97;5200655;28;20221;-83
2021/10/22 01:55:10;;;;;;;7.33;6.53;;;8.10;99.90;;;9.02;100.00;97915.91;5199989;28;20246;-83
2021/10/22 01:57:43;;;;;;;8.90;6.57;;;8.10;99.90;;;8.98;100.00;97914.78;5194339;28;20199;-84
2021/10/22 02:00:16;;;;;;;10.00;6.50;;;8.00;99.90;;;9.01;100.00;97920.13;5198917;28;20294;-83
2021/10/22 02:02:49;;;;;;;8.97;6.80;;;8.10;99.90;;;9.01;100.00;97917.56;5193335;28;20249;-84
2021/10/22 02:05:23;;;;;;;7.93;6.90;;;8.00;99.90;;;9.07;100.00;97916.16;5199982;28;20269;-84
2021/10/22 02:07:59;;;;;;;8.40;6.87;;;8.10;99.90;;;9.05;100.00;97920.31;5199650;28;20198;-85
2021/10/22 02:10:32;;;;;;;8.07;6.43;;;8.10;99.90;;;8.99;100.00;97926.78;5200743;28;20186;-83
2021/10/22 02:13:06;;;;;;;9.17;7.00;;;8.00;99.90;;;8.94;100.00;97924.72;5201028;28;20257;-82
2021/10/22 02:15:39;;;;;;;6.97;6.27;;;8.00;99.90;;;8.89;100.00;97926.06;5200704;28;20218;-83
2021/10/22 02:18:13;;;;;;;10.03;7.40;;;7.90;99.90;;;8.85;100.00;97926.69;5198867;28;20226;-83
2021/10/22 02:20:46;;;;;;;9.50;6.73;;;7.80;99.90;;;8.84;100.00;97932.53;5200132;28;20210;-83
2021/10/22 02:23:20;;;;;;;8.60;6.87;;;7.80;99.90;;;8.73;100.00;97934.41;5201211;28;20203;-83
2021/10/22 02:25:54;;;;;;;9.67;6.77;;;7.70;99.90;;;8.69;100.00;97930.75;5198322;28;20225;-82
2021/10/22 02:28:27;;;;;;;10.53;7.23;;;7.70;99.90;;;8.65;100.00;97927.94;5198030;28;20242;-83
2021/10/22 02:31:01;;;;;;;8.90;7.10;;;7.70;99.90;;;8.72;100.00;97935.19;5200233;28;20202;-83
2021/10/22 02:33:35;;;;;;;7.60;6.73;;;7.80;99.90;;;8.75;100.00;97930.28;5201107;28;20198;-84
2021/10/22 02:36:08;;;;;;;7.57;6.77;;;7.80;99.90;;;8.75;100.00;97938.78;5200143;28;20257;-83
2021/10/22 02:38:43;;;;;;;8.60;7.77;;;7.80;99.90;;;8.87;100.00;97938.75;5201208;28;20203;-84
2021/10/22 02:41:17;;;;;;;7.60;6.57;;;7.80;99.90;;;8.84;100.00;97945.28;5198382;28;20202;-83
2021/10/22 02:43:50;;;;;;;10.10;6.83;;;7.80;99.90;;;8.82;100.00;97947.75;5200715;28;20202;-83
2021/10/22 02:46:23;;;;;;;16.87;8.17;;;7.80;99.90;;;8.81;100.00;97945.97;5198421;28;20851;-81
2021/10/22 02:48:57;;;;;;;9.83;7.10;;;7.80;99.90;;;8.84;100.00;97945.28;5195787;28;20211;-83
2021/10/22 02:51:30;;;;;;;9.47;6.90;;;7.80;99.90;;;8.84;100.00;97951.25;5194658;28;20207;-84
2021/10/22 02:54:05;;;;;;;12.53;7.60;;;7.70;99.90;;;8.77;100.00;97954.22;5199165;28;20207;-83
2021/10/22 02:56:38;;;;;;;8.90;7.00;;;7.70;99.90;;;8.75;100.00;97956.63;5195661;28;20221;-83
2021/10/22 02:59:11;;;;;;;8.77;7.00;;;7.70;99.90;;;8.70;100.00;97957.13;5199149;28;20202;-83
2021/10/22 03:01:45;;;;;;;7.93;7.17;;;7.70;99.90;;;8.70;100.00;97954.56;5199538;28;20219;-83
2021/10/22 03:04:18;;;;;;;8.30;7.20;;;7.60;99.90;;;8.66;100.00;97955.16;5196437;28;20219;-83
2021/10/22 03:06:51;;;;;;;9.13;6.73;;;7.60;99.90;;;8.67;100.00;97952.72;5199971;28;20641;-83
2021/10/22 03:09:26;;;;;;;8.47;7.10;;;7.70;99.90;;;8.69;100.00;97960.47;5200043;28;20234;-83
2021/10/22 03:11:59;;;;;;;8.80;6.97;;;7.70;99.90;;;8.70;100.00;97962.22;5200085;28;20233;-84
2021/10/22 03:14:32;;;;;;;9.03;7.27;;;7.60;99.90;;;8.75;100.00;97966.84;5200238;28;20241;-84
2021/10/22 03:17:06;;;;;;;11.67;7.00;;;7.70;99.90;;;8.77;100.00;97962.72;5199880;28;20214;-83
2021/10/22 03:19:39;;;;;;;11.47;7.73;;;7.70;99.90;;;8.62;100.00;97976.13;5197718;28;20245;-84
2021/10/22 03:22:13;;;;;;;9.90;6.93;;;7.50;99.90;;;8.66;100.00;97975.53;5196964;28;20269;-84
2021/10/22 03:24:48;;;;;;;12.23;7.53;;;7.60;99.90;;;8.67;100.00;97977.31;5198488;28;20234;-84
2021/10/22 03:27:22;;;;;;;10.63;7.23;;;7.70;99.90;;;8.68;100.00;97974.00;5198482;28;20257;-84
2021/10/22 03:29:56;;;;;;;14.43;8.10;;;7.70;99.90;;;8.71;100.00;97974.19;5196281;28;20194;-84
2021/10/22 03:32:32;;;;;;;11.60;8.00;;;7.70;99.90;;;8.67;100.00;97979.84;5195541;28;20211;-84
2021/10/22 03:35:08;;;;;;;9.40;7.17;;;7.70;99.90;;;8.69;100.00;97985.94;5196485;28;20237;-84
2021/10/22 03:37:41;;;;;;;8.00;7.20;;;7.60;99.90;;;8.69;100.00;97980.84;5191161;28;20222;-84
2021/10/22 03:40:15;;;;;;;10.63;7.83;;;7.60;99.90;;;8.68;100.00;97987.59;5196659;28;20238;-84
2021/10/22 03:42:53;;;;;;;11.30;7.27;;;7.70;99.90;;;8.57;100.00;97989.44;5196687;28;20248;-84
2021/10/22 03:45:26;;;;;;;10.73;7.53;;;7.50;99.90;;;8.56;100.00;97985.13;5195854;28;20257;-83
2021/10/22 03:47:59;;;;;;;12.57;8.63;;;7.50;99.90;;;8.53;100.00;97982.38;5195395;28;20206;-83
2021/10/22 03:50:34;;;;;;;12.20;8.10;;;7.40;99.90;;;8.51;100.00;97991.59;5196467;28;20302;-84
2021/10/22 03:53:07;;;;;;;12.50;8.37;;;7.40;99.90;;;8.35;100.00;97998.94;5192192;28;20230;-83
2021/10/22 03:55:41;;;;;;;10.50;7.53;;;7.30;99.90;;;8.35;100.00;97997.28;5195471;28;20249;-84
2021/10/22 03:58:16;;;;;;;11.77;8.30;;;7.20;99.90;;;8.28;100.00;97992.53;5195654;28;20198;-84
2021/10/22 04:00:50;;;;;;;12.40;7.97;;;7.10;99.90;;;8.18;100.00;97997.78;5192941;28;20198;-84
2021/10/22 04:03:23;;;;;;;11.57;8.03;;;7.10;99.90;;;8.15;100.00;97999.25;5190726;28;20222;-83
2021/10/22 04:05:58;;;;;;;12.30;8.23;;;7.10;99.90;;;8.15;100.00;98004.31;5192793;28;20222;-84
2021/10/22 04:08:31;;;;;;;12.23;7.77;;;7.00;99.90;;;8.12;100.00;98010.09;5192743;28;20262;-84
2021/10/22 04:11:07;;;;;;;13.00;8.43;;;7.00;99.90;;;8.06;100.00;98015.63;5193251;28;20226;-83
2021/10/22 04:13:40;;;;;;;11.60;7.80;;;7.00;99.90;;;8.04;100.00;98012.13;5194472;28;20240;-83
2021/10/22 04:16:13;;;;;;;14.03;9.17;;;7.00;99.90;;;8.03;100.00;98010.34;5194833;28;20310;-83
2021/10/22 04:18:47;;;;;;;13.17;8.63;;;7.00;99.90;;;8.02;100.00;98010.25;5191941;28;20209;-84
2021/10/22 04:21:20;;;;;;;9.40;7.90;;;6.90;99.90;;;7.97;100.00;98019.22;5192626;28;20234;-83
2021/10/22 04:23:54;;;;;;;11.73;8.40;;;6.80;99.90;;;7.92;100.00;98018.00;5193756;28;20254;-84
2021/10/22 04:26:28;;;;;;;12.13;8.30;;;6.80;99.90;;;7.85;100.00;98026.88;5193346;28;20673;-83
2021/10/22 04:29:02;;;;;;;17.43;8.37;;;6.80;99.90;;;7.73;100.00;98023.50;5191732;28;20633;-84
2021/10/22 04:31:35;;;;;;;10.47;7.53;;;6.70;99.90;;;7.71;100.00;98027.56;5190159;28;20222;-84
2021/10/22 04:34:09;;;;;;;10.70;7.77;;;6.70;99.90;;;7.71;100.00;98032.66;5191159;28;20195;-85
2021/10/22 04:36:42;;;;;;;9.67;7.87;;;6.70;99.90;;;7.63;100.00;98025.38;5192107;28;20678;-84
2021/10/22 04:42:08;;;;;;;8.87;7.80;;;6.60;99.90;;;7.53;100.00;98030.59;5190642;28;20206;-84
2021/10/22 04:44:41;;;;;;;12.60;8.53;;;6.50;99.90;;;7.49;100.00;98025.16;5191869;28;20222;-85
2021/10/22 04:47:14;;;;;;;15.43;9.63;;;6.50;99.90;;;7.44;100.00;98032.47;5190275;28;20218;-83
2021/10/22 04:49:48;;;;;;;14.23;11.30;;;6.40;99.90;;;7.36;100.00;98039.56;5191278;28;20218;-83
2021/10/22 04:52:21;;;;;;;11.60;10.37;;;6.40;99.90;;;7.35;100.00;98037.75;5184388;28;20211;-84
2021/10/22 04:54:54;;;;;;;13.00;10.77;;;6.40;99.90;;;7.34;100.00;98037.66;5190491;28;20713;-84
2021/10/22 04:57:29;;;;;;;12.77;9.27;;;6.40;99.90;;;7.32;100.00;98034.13;5192915;28;20222;-83
2021/10/22 05:00:02;;;;;;;11.97;9.70;;;6.30;99.90;;;7.27;100.00;98048.16;5188862;28;20229;-83
2021/10/22 05:02:36;;;;;;;13.17;9.20;;;6.30;99.90;;;7.22;100.00;98048.72;5183209;28;20265;-83
2021/10/22 05:05:09;;;;;;;11.80;8.43;;;6.20;99.90;;;7.15;100.00;98056.69;5189139;28;20210;-83
2021/10/22 05:07:43;;;;;;;9.93;7.90;;;6.20;99.90;;;7.11;100.00;98044.50;5189788;28;20453;-83
2021/10/22 05:10:16;;;;;;;18.07;9.73;;;6.10;99.90;;;7.00;100.00;98036.09;5188271;28;20266;-82
2021/10/22 05:12:51;;;;;;;11.77;9.10;;;6.10;99.90;;;7.00;100.00;98040.28;5191092;28;20230;-82
2021/10/22 05:15:26;;;;;;;12.03;8.97;;;6.10;99.90;;;7.05;100.00;98033.88;5191342;28;20210;-83
2021/10/22 05:17:59;;;;;;;10.10;8.03;;;6.10;99.90;;;7.02;100.00;98032.78;5195394;28;20206;-82
2021/10/22 05:20:33;;;;;;;12.97;8.47;;;6.00;99.90;;;6.98;100.00;98035.09;5192812;28;20221;-83
2021/10/22 05:23:06;;;;;;;11.90;8.23;;;6.00;99.90;;;6.97;100.00;98042.59;5195302;28;20327;-83
2021/10/22 05:25:39;;;;;;;11.37;8.40;;;6.00;99.90;;;6.99;100.00;98041.06;5192641;28;20246;-84
2021/10/22 05:28:14;;;;;;;10.37;7.90;;;6.00;99.90;;;6.98;100.00;98036.72;5193147;28;20580;-83
2021/10/22 05:30:47;;;;;;;12.73;8.33;;;6.00;99.90;;;7.00;100.00;98040.28;5192173;28;20659;-84
2021/10/22 05:33:21;;;;;;;12.87;8.70;;;6.10;99.90;;;6.99;100.00;98033.44;5191553;28;20285;-82
2021/10/22 05:35:54;;;;;;;13.73;9.30;;;6.00;99.90;;;7.02;100.00;98038.75;5198762;28;20575;-87
2021/10/22 05:38:28;;;;;;;13.43;8.93;;;6.10;99.90;;;7.04;100.00;98042.28;5190180;28;20286;-81
2021/10/22 05:41:02;;;;;;;13.77;9.30;;;6.10;99.90;;;7.03;100.00;98037.97;5189420;28;20260;-81
2021/10/22 05:43:36;;;;;;;16.43;10.07;;;6.10;99.90;;;7.02;100.00;98043.84;5188876;28;20242;-81
2021/10/22 05:46:11;;;;;;;13.73;9.43;;;6.10;99.90;;;7.03;100.00;98053.22;5186960;28;20319;-80
2021/10/22 05:48:44;;;;;;;10.33;8.83;;;6.10;99.90;;;7.12;100.00;98041.16;5189766;28;20202;-80
2021/10/22 05:51:17;;;;;;;11.23;8.00;;;5.90;99.90;;;6.99;100.00;98052.13;5189615;28;20238;-81
2021/10/22 05:53:51;;;;;;;8.83;7.43;;;5.70;99.90;;;6.85;100.00;98051.88;5187778;28;20258;-81
2021/10/22 05:56:25;;;;;;;8.63;7.80;;;5.80;99.90;;;6.74;100.00;98046.84;5184832;28;20231;-81
2021/10/22 05:59:00;;;;;;;7.43;6.73;;;5.70;99.90;;;6.74;100.00;98054.47;5188107;28;20201;-82
2021/10/22 06:01:33;;;;;;;9.20;7.27;;;5.70;99.90;;;6.67;100.00;98059.88;5189429;28;20190;-81
2021/10/22 06:04:07;;;;;;;9.27;7.47;;;5.70;99.90;;;6.65;100.00;98066.50;5185984;28;20218;-82
2021/10/22 06:06:40;;;;;;;10.90;8.17;;;5.70;99.90;;;6.62;100.00;98062.84;5183322;28;20242;-80
2021/10/22 06:09:14;;;;;;;10.07;7.90;;;5.60;99.90;;;6.68;100.00;98066.72;5187122;28;20198;-81
2021/10/22 06:11:49;;;;;;;11.40;7.67;;;5.70;99.90;;;6.60;100.00;98070.34;5187279;28;20257;-81
2021/10/22 06:14:23;;;;;;;13.63;8.17;;;5.60;99.90;;;6.62;100.00;98075.53;5186293;28;20301;-84
2021/10/22 06:16:57;;;;;;;8.43;7.53;;;5.60;99.90;;;6.59;100.00;98081.28;5187127;28;20316;-82
2021/10/22 06:19:34;;;;;;;9.07;7.60;;;5.60;99.90;;;6.60;100.00;98088.09;5185974;28;20205;-81
2021/10/22 06:22:15;;;;;;;10.63;8.43;;;5.70;99.90;;;6.71;100.00;98092.34;5188971;28;20198;-83
2021/10/22 06:24:48;;;;;;;9.90;8.07;;;5.70;99.90;;;6.73;100.00;98092.47;5185637;28;20230;-80
2021/10/22 06:27:21;;;;;;;15.40;10.03;;;5.60;99.90;;;6.67;100.00;98094.56;5186641;28;20209;-82
2021/10/22 06:29:57;;;;;;;16.70;9.73;;;5.80;99.90;;;6.83;100.00;98099.13;5185311;28;20207;-81
2021/10/22 06:32:30;;;;;;;15.87;10.13;;;5.80;99.90;;;6.92;100.00;98103.22;5187140;28;20708;-81
2021/10/22 06:35:04;;;;;;;14.03;10.20;;;5.80;99.90;;;6.98;100.00;98103.72;5186605;28;20564;-81
2021/10/22 06:37:37;;;;;;;14.47;11.13;;;5.80;99.90;;;7.06;100.00;98106.81;5184325;28;20301;-81
2021/10/22 06:40:12;;;;;;;16.50;11.20;;;5.90;99.90;;;7.10;100.00;98111.38;5181396;28;20271;-81
2021/10/22 06:42:45;;;;;;;17.43;12.07;;;5.90;99.90;;;7.10;100.00;98107.94;5188086;28;20289;-81
2021/10/22 06:45:19;;;;;;;20.43;13.50;;;6.00;99.90;;;7.11;100.00;98110.56;5186423;28;20318;-80
2021/10/22 06:47:52;;;;;;;20.97;13.67;;;5.90;99.90;;;7.11;100.00;98119.88;5183399;28;20210;-81
2021/10/22 06:50:25;;;;;;;24.93;12.67;;;6.00;99.90;;;7.14;100.00;98122.63;5185935;28;20194;-81
2021/10/22 06:52:58;;;;;;;27.17;12.37;;;6.00;99.90;;;7.05;100.00;98122.84;5187710;28;20709;-80
2021/10/22 06:55:31;;;;;;;20.70;12.20;;;6.00;99.90;;;7.19;100.00;98127.28;5188128;28;20341;-81
2021/10/22 06:58:05;;;;;;;20.03;10.80;;;6.10;99.90;;;7.30;100.00;98133.19;5184753;28;20692;-81
2021/10/22 07:00:40;;;;;;;16.50;10.93;;;6.20;99.90;;;7.32;100.00;98130.72;5185509;28;20206;-81
2021/10/22 07:03:18;;;;;;;18.57;10.97;;;6.20;99.90;;;7.38;100.00;98127.00;5189556;28;20198;-81
2021/10/22 07:07:14;;;;;;;13.43;10.70;;;6.10;99.90;;;7.37;100.00;98143.00;5187034;28;20233;-80
2021/10/22 07:08:57;;;;;;;14.33;10.87;;;6.10;99.90;;;7.37;100.00;98137.03;5181263;28;20198;-82
2021/10/22 07:11:31;;;;;;;17.63;11.67;;;6.10;99.90;;;7.41;100.00;98142.47;5191607;28;20202;-83
2021/10/22 07:14:06;;;;;;;22.53;11.90;;;6.20;99.90;;;7.37;100.00;98154.84;5190796;28;20725;-83
2021/10/22 07:16:42;;;;;;;38.17;11.70;;;6.30;99.90;;;7.19;100.00;98162.88;5188755;28;20195;-81
2021/10/22 07:19:15;;;;;;;19.33;11.57;;;6.10;99.90;;;7.33;100.00;98165.56;5183275;28;20194;-81
2021/10/22 07:21:50;;;;;;;16.67;11.20;;;6.20;99.90;;;7.43;100.00;98168.88;5187906;28;20290;-83
2021/10/22 07:24:25;;;;;;;12.67;11.23;;;6.30;99.90;;;7.63;100.00;98169.47;5187546;28;20222;-82
2021/10/22 07:26:59;;;;;;;16.10;12.10;;;6.40;99.90;;;7.85;100.00;98177.03;5184884;28;20273;-82
2021/10/22 07:29:33;;;;;;;23.73;12.43;;;6.60;99.90;;;8.04;100.00;98187.75;5191425;28;20233;-83
2021/10/22 07:32:07;;;;;;;14.50;11.63;;;6.80;99.90;;;8.17;100.00;98184.41;5189999;28;20203;-83
2021/10/22 07:34:41;;;;;;;13.80;11.63;;;6.80;99.90;;;8.17;100.00;98192.06;5189567;28;20210;-83
2021/10/22 07:37:14;;;;;;;12.87;10.60;;;6.70;99.90;;;8.21;100.00;98188.06;5192053;28;20244;-82
2021/10/22 07:39:47;;;;;;;14.40;10.60;;;6.70;99.90;;;8.31;100.00;98191.38;5190191;28;20231;-83
2021/10/22 07:42:20;;;;;;;13.03;9.83;;;6.70;99.90;;;8.38;100.00;98204.53;5189539;28;20229;-84
2021/10/22 07:44:58;;;;;;;12.43;10.43;;;6.80;99.90;;;8.47;100.00;98203.59;5188725;28;20610;-84
2021/10/22 07:47:34;;;;;;;15.07;11.10;;;6.80;99.90;;;8.52;100.00;98214.09;5189625;28;20198;-84
2021/10/22 07:50:09;;;;;;;13.70;10.60;;;6.90;99.90;;;8.55;100.00;98214.28;5188684;28;20245;-82
2021/10/22 07:52:42;;;;;;;11.73;10.40;;;7.10;99.90;;;8.66;100.00;98215.94;5189541;28;20230;-84
2021/10/22 07:55:16;;;;;;;12.57;10.63;;;7.20;99.90;;;8.66;100.00;98215.06;5189260;28;20290;-84
2021/10/22 07:57:49;;;;;;;11.50;10.30;;;7.20;99.90;;;8.79;100.00;98225.34;5188761;28;20226;-83
2021/10/22 08:00:24;;;;;;;12.40;10.10;;;7.20;99.90;;;8.79;100.00;98222.78;5189178;28;20229;-83
2021/10/22 08:02:58;;;;;;;12.00;10.37;;;7.20;99.90;;;8.68;100.00;98228.81;5189234;28;20623;-83
2021/10/22 08:05:32;;;;;;;14.37;10.97;;;7.20;99.90;;;8.83;100.00;98227.31;5190090;28;20317;-83
2021/10/22 08:08:07;;;;;;;12.70;10.27;;;7.20;99.90;;;8.88;100.00;98225.97;5190006;28;20291;-83
2021/10/22 08:10:45;;;;;;;13.60;10.97;;;7.30;99.90;;;9.12;99.83;98230.97;5190599;28;20211;-84
2021/10/22 08:13:18;;;;;;;13.47;10.37;;;7.50;99.90;;;9.26;100.00;98230.25;5189541;28;20467;-84
2021/10/22 08:15:52;;;;;;;14.47;10.93;;;7.80;99.90;;;9.38;100.00;98238.72;5189165;28;20681;-83
2021/10/22 08:18:27;;;;;;;12.17;10.57;;;8.00;99.90;;;9.56;100.00;98238.22;5190768;28;20198;-84
2021/10/22 08:21:02;;;;;;;14.30;11.17;;;8.20;99.90;;;9.73;100.00;98232.56;5184187;28;20305;-83
2021/10/22 08:23:35;;;;;;;12.93;10.83;;;8.40;99.90;;;9.92;99.78;98240.63;5189812;28;20289;-84
2021/10/22 08:26:08;;;;;;;11.50;9.87;;;8.50;99.90;;;10.01;97.03;98244.59;5181835;28;20309;-83
2021/10/22 08:28:42;;;;;;;10.83;9.60;;;8.60;99.90;;;10.07;95.27;98245.88;5190940;28;20615;-84
2021/10/22 08:31:15;;;;;;;10.30;8.23;;;8.70;99.90;;;10.20;97.72;98246.69;5189222;28;20673;-83
2021/10/22 08:33:50;;;;;;;11.97;8.37;;;8.90;99.90;;;10.25;97.55;98240.19;5189122;28;20202;-83
2021/10/22 08:36:23;;;;;;;12.00;8.87;;;9.20;99.90;;;10.40;95.79;98246.31;5196391;28;20216;-80
2021/10/22 08:38:56;;;;;;;12.90;7.47;;;9.40;99.90;;;10.58;94.74;98249.16;5191634;28;20269;-82
2021/10/22 08:41:30;;;;;;;10.98;6.40;;;9.60;99.90;;;10.72;94.50;98256.00;5190053;28;20658;-83
2021/10/22 08:44:04;;;;;;;8.80;5.68;;;9.90;99.90;;;10.93;95.40;98246.25;5189135;28;20214;-82
2021/10/22 08:46:41;;;;;;;9.45;5.38;;;10.10;99.90;;;11.12;92.01;98249.94;5187790;28;20232;-82
2021/10/22 08:49:17;;;;;;;8.10;5.05;;;10.30;99.90;;;11.14;90.49;98250.91;5189788;28;20242;-81
2021/10/22 08:51:50;;;;;;;8.27;4.38;;;10.40;99.90;;;11.22;88.08;98254.81;5190511;28;20288;-81
2021/10/22 08:54:23;;;;;;;9.55;4.88;;;10.60;99.90;;;11.30;87.47;98258.69;5191835;28;20305;-82
2021/10/22 08:57:14;;;;;;;8.82;5.05;;;10.60;99.90;;;11.54;91.88;98264.44;5191236;28;20253;-82
2021/10/22 08:59:47;;;;;;;14.07;4.00;;;10.80;99.90;;;11.38;81.64;98261.75;5189722;28;20200;-82
2021/10/22 09:02:24;;;;;;;10.35;4.10;;;10.80;99.90;;;11.52;86.01;98262.56;5192959;28;20281;-82
2021/10/22 09:05:14;;;;;;;10.43;4.10;;;10.90;99.90;;;11.03;76.67;98253.69;5182181;28;20230;-81
2021/10/22 09:07:49;;;;;;;7.40;4.30;;;10.70;99.90;;;11.22;81.40;98255.69;5192077;28;20225;-82
2021/10/22 09:10:24;;;;;;;9.00;4.22;;;10.60;99.90;;;11.45;83.38;98263.88;5189638;28;20269;-81
2021/10/22 09:13:01;;;;;;;8.73;3.97;;;10.70;99.90;;;11.42;82.72;98263.72;5192423;28;20742;-82
2021/10/22 09:15:36;;;;;;;11.18;4.25;;;10.80;99.90;;;11.54;84.09;98261.00;5187295;28;20260;-82
2021/10/22 09:18:17;;;;;;;9.18;4.13;;;10.80;99.90;;;11.73;81.70;98256.16;5190962;28;20206;-81
2021/10/22 09:20:55;;;;;;;7.25;3.90;;;11.00;99.90;;;11.68;81.11;98253.34;5193454;28;20205;-82
2021/10/22 09:23:30;;;;;;;8.25;4.07;;;10.80;99.90;;;11.65;79.34;98255.72;5191575;28;20294;-82
2021/10/22 09:26:17;;;;;;;10.43;4.50;;;10.80;99.90;;;11.63;78.89;98253.84;5192626;28;20230;-82
2021/10/22 09:28:52;;;;;;;9.52;4.63;;;10.60;99.90;;;11.62;74.76;98263.22;5190516;28;20319;-82
2021/10/22 09:31:25;;;;;;;8.60;4.00;;;10.70;99.90;;;11.56;79.68;98251.72;5185408;28;20645;-82
2021/10/22 09:34:01;;;;;;;7.20;3.70;;;10.60;99.90;;;11.63;81.00;98258.97;5188195;28;20217;-82
2021/10/22 09:36:39;;;;;;;9.20;3.95;;;10.70;99.90;;;11.46;76.86;98256.28;5193009;28;20222;-82
2021/10/22 09:39:18;;;;;;;8.68;3.40;;;10.50;99.90;;;10.96;70.66;98253.19;5186179;28;20202;-82
2021/10/22 09:41:54;;;;;;;7.93;3.53;;;10.10;99.90;;;10.94;75.92;98252.25;5193822;28;21124;-81
2021/10/22 09:44:30;;;;;;;8.73;3.90;;;10.00;99.90;;;10.91;77.34;98259.72;5193792;28;20236;-81
2021/10/22 09:47:15;;;;;;;10.52;3.58;;;10.00;99.90;;;10.82;78.67;98258.38;5191756;28;20353;-81
2021/10/22 09:49:52;;;;;;;7.20;3.45;;;9.90;99.90;;;10.83;80.78;98267.78;5195014;28;20278;-81
2021/10/22 09:52:28;;;;;;;11.32;3.75;;;9.90;99.90;;;10.80;74.54;98252.25;5187875;28;20270;-82
2021/10/22 09:55:08;;;;;;;6.95;3.22;;;10.00;99.90;;;10.93;75.47;98266.72;5191830;28;20282;-82
2021/10/22 09:57:44;;;;;;;7.63;3.53;;;10.10;99.90;;;11.06;70.84;98255.56;5191002;28;20240;-82
2021/10/22 10:00:22;;;;;;;8.75;3.78;;;10.30;99.90;;;10.98;70.39;98249.06;5188472;28;20629;-81
2021/10/22 10:02:55;;;;;;;5.43;2.78;;;10.30;99.90;;;11.08;74.18;98251.41;5191038;28;20232;-82
2021/10/22 10:05:29;;;;;;;7.55;3.20;;;10.40;99.90;;;11.39;69.66;98256.72;5195454;28;20341;-82
2021/10/22 10:08:05;;;;;;;7.97;3.25;;;10.70;99.90;;;11.11;66.01;98251.59;5194672;28;20199;-82
2021/10/22 10:10:38;;;;;;;7.30;3.00;;;10.70;99.90;;;11.39;69.75;98249.03;5195222;28;20221;-82
2021/10/22 10:13:13;;;;;;;8.73;3.15;;;10.80;99.90;;;11.64;67.91;98240.25;5195549;28;20199;-82
2021/10/22 10:15:48;;;;;;;7.60;3.22;;;11.00;99.90;;;11.60;67.75;98246.00;5194427;28;20282;-82
2021/10/22 10:18:23;;;;;;;5.65;3.03;;;11.10;99.90;;;11.81;68.41;98238.69;5193865;28;20232;-83
2021/10/22 10:20:59;;;;;;;7.43;3.17;;;11.10;99.90;;;12.02;64.23;98236.50;5191632;28;20533;-81
2021/10/22 10:23:36;;;;;;;8.85;3.20;;;11.20;99.90;;;12.06;66.18;98231.66;5196744;28;20225;-82
2021/10/22 10:26:28;;;;;;;8.95;3.20;;;11.20;99.90;;;12.18;64.66;98236.59;5197912;28;20229;-81
2021/10/22 10:29:05;;;;;;;7.82;2.92;;;11.40;99.90;;;12.30;61.95;98232.13;5192199;28;20289;-82
2021/10/22 10:31:41;;;;;;;7.82;2.92;;;11.50;99.90;;;12.32;62.70;98232.25;5198037;28;20222;-82
2021/10/22 10:34:54;;;;;;;8.23;2.90;;;11.60;99.90;;;12.43;64.25;98232.84;5196894;28;20225;-82
2021/10/22 10:37:34;;;;;;;8.48;3.00;;;11.70;99.90;;;12.63;63.55;98230.56;5188762;28;20222;-83
2021/10/22 10:40:23;;;;;;;6.60;2.60;;;11.90;99.90;;;12.73;59.91;98229.38;5197545;28;20285;-82
2021/10/22 10:42:59;;;;;;;6.53;2.88;;;11.90;99.90;;;12.85;61.93;98229.19;5196959;28;20267;-82
2021/10/22 10:45:43;;;;;;;7.45;3.00;;;11.90;99.90;;;12.95;60.62;98226.31;5195247;28;20250;-82
2021/10/22 10:48:22;;;;;;;5.20;2.90;;;12.10;99.90;;;12.97;58.33;98227.28;5196935;28;20203;-82
2021/10/22 10:51:03;;;;;;;6.28;2.40;;;12.10;99.90;;;13.08;57.08;98225.28;5195452;28;20202;-82
2021/10/22 10:53:39;;;;;;;8.13;3.08;;;12.10;99.90;;;13.12;56.61;98228.91;5197215;28;20214;-82
2021/10/22 10:56:26;;;;;;;5.75;2.83;;;12.10;99.90;;;13.02;55.04;98218.16;5195086;28;20614;-82